Airfield :
LOGIN :

Register | Disclaimer

   EN    FR    IT 

 










Legend :    VFR   Marginal VFR   IFR   Intensive IFR   Very Intensive IFR
Visi :
Ceiling :
>= 8 km
>= 3000ft
5 to 8 km
1000 to 3000 ft
1500m to 5 km
500 to 1000 ft
800 to 1500m
200 to 500 ft
< 800m
< 200 ft
Symbols :   Thunderstorms  Fog  Heavy snow  Heavy precipitations  Wind > 20 kt
SIGMETs :     Misc.  Thunderstorms  Icing  Turbulence  Mountain Waves  Volcanic Ashes






- Airport Elevation : 915 ft
- IATA code : LUG


LSZA - Lugano

CURRENT METAR :
  • 171220Z 01012KT 350V050 9999 SCT100 15/M06 Q1004

EXPIRED METARs :
  • 171150Z 01009KT 340V060 9999 FEW100 SCT110 BKN120 15/M05 Q1004
  • 171120Z 01010KT 350V050 9999 SCT100 SCT110 17/M02 Q1004
  • 171050Z AUTO 02010KT 330V100 9999 FEW100 17/M03 Q1004
  • 171020Z AUTO 02008KT 310V090 9999 FEW100 16/M02 Q1004
  • 170950Z AUTO 01009KT 350V050 9999 FEW095 16/M02 Q1004
  • 170920Z AUTO 03007KT 350V130 CAVOK 15/M02 Q1005
  • 170850Z VRB04KT CAVOK 14/M04 Q1005
  • 170820Z 20003KT 170V240 CAVOK 13/M02 Q1005
  • 170750Z 20004KT CAVOK 12/01 Q1005

TAF TAF LSZA
Valid from the 17 at 12:00 until the 17 at 21:00 UTC


171125Z 1712/1721 02010KT 9999 SCT100
TEMPO 1712/1718 36012G25KT
ATIS : +41 22 417 40 88



MET'MAP, your aeronautical weather chart ! - Copyright ORBIFLY December 2007 - Disclaimer

ORBIFLY MET'MAP TEAM :

Programming & Development : Alexandra Zaïnal
Original concept : Baudouin d'Aumeries
Technical & hardware support : Manuel Goepfert
Assistance : Marc-Olivier Méhu




SOURCES & CREDITS :

   NOAA